Pagina principale
METAR-TAF:

METAR-TAF

Aeroporti :

Sal, Capo Verde

latitudine: 16-44N, longitudine: 022-57W, altezza: 54 m

Osservazione

Il bollettino è stato emesso 48 minuti fa, alle 12:00 UTC
Vento 20 kt da nord-est
Temperature 27°C
Umidità 66%
Pressione 1016 hPa
Visibilità 10 km o più
Nubi sparse ad un'altezza di 1400 ft

METAR: GVAC 271200Z 04020KT 9999 SCT014 27/20 Q1016 NOSIG

Ora: 11:48 (12:48 UTC)

Previsione

Il bollettino è stato emesso 1 ora e 48 minuti fa, alle 11:00 UTC
Previsione valida dal 27 alle 12 UTC al 28 alle 18 UTC
Vento 16 kt da nord/nord-est
Visibilità 10 km o più
Nubi sparse ad un'altezza di 1400 ft
Temporaneamente
dal 28 alle 00 UTC al 28 alle 08 UTC
Nuvoloso ad un'altezza di 1300 ft

TAF: GVAC 271100Z 2712/2818 03016KT 9999 SCT014 TEMPO 2800/2808 BKN013

Osservazioni e previsioni meteorologiche di più di 4000 aeroporti (messaggi METAR e TAF).

Le stazioni disponibili sono rappresentate dai dischi gialli e rossi sulla carta.

Puntare il mouse per vedere il nome della stazione.

Clicca sopra per visualizzare le osservazioni e previsioni meteorologiche.

Per cambiare la mappa : fare clic sui pulsanti verdi con una croce nera per ingrandire, il pulsante verde con un trattino per diminuire, o sulla freccia verde per le mappe adiacenti.


METAR-TAF: